Time;durP1;ratioP1;P1;durP2;ratioP2;P2;SDS_P1;SDS_P2;PMS_P1;PMS_P2;Temp;Humidity;BMP_temperature;BMP_pressure;BME280_temperature;BME280_humidity;BME280_pressure;Samples;Min_cycle;Max_cycle;Signal;HPM_P1;HPM_P2
2021/12/13 00:01:16;;;;;;;42.43;24.53;;;11.60;99.90;;;;;;6313038;22;20163;-91
2021/12/13 00:04:01;;;;;;;53.83;29.43;;;11.60;99.90;;;;;;6313062;22;20152;-91
2021/12/13 00:06:30;;;;;;;48.13;24.77;;;11.60;99.90;;;;;;6312773;22;20141;-91
2021/12/13 00:08:58;;;;;;;42.83;23.93;;;11.70;99.90;;;;;;6313125;22;20153;-91
2021/12/13 00:11:32;;;;;;;45.07;25.47;;;11.60;99.90;;;;;;6312849;22;20159;-92
2021/12/13 00:14:11;;;;;;;43.43;24.30;;;11.70;99.90;;;;;;6312583;22;20606;-92
2021/12/13 00:16:41;;;;;;;46.80;24.53;;;11.60;99.90;;;;;;6312829;22;20468;-91
2021/12/13 00:19:14;;;;;;;41.93;23.70;;;11.50;99.90;;;;;;6312843;22;20185;-92
2021/12/13 00:21:44;;;;;;;45.63;24.60;;;11.40;99.90;;;;;;6312650;22;20511;-90
2021/12/13 00:24:28;;;;;;;52.90;27.67;;;11.40;99.90;;;;;;6313247;22;20588;-92
2021/12/13 00:27:22;;;;;;;47.37;24.03;;;11.50;99.90;;;;;;6313259;22;20165;-92
2021/12/13 00:30:16;;;;;;;44.40;24.27;;;11.50;99.90;;;;;;6308310;22;20158;-92
2021/12/13 00:33:01;;;;;;;46.70;24.97;;;11.50;99.90;;;;;;6312644;22;20169;-91
2021/12/13 00:35:35;;;;;;;43.73;23.93;;;11.50;99.90;;;;;;6313148;22;20153;-92
2021/12/13 00:38:05;;;;;;;46.90;24.33;;;11.50;99.90;;;;;;6312943;22;20188;-91
2021/12/13 00:40:43;;;;;;;46.53;23.97;;;11.60;99.90;;;;;;6313267;22;20160;-92
2021/12/13 00:43:14;;;;;;;43.17;24.27;;;11.60;99.90;;;;;;6312773;22;20518;-91
2021/12/13 00:45:57;;;;;;;43.83;23.87;;;11.60;99.90;;;;;;6313052;22;20232;-92
2021/12/13 00:48:25;;;;;;;44.20;25.33;;;11.60;99.90;;;;;;6313102;22;20149;-93
2021/12/13 00:50:59;;;;;;;42.53;24.40;;;11.60;99.90;;;;;;6313028;22;20145;-92
2021/12/13 00:53:26;;;;;;;41.20;22.47;;;11.70;99.90;;;;;;6312717;22;20149;-92
2021/12/13 00:55:53;;;;;;;41.97;23.07;;;11.70;99.90;;;;;;6312516;22;20165;-92
2021/12/13 00:58:22;;;;;;;45.07;25.77;;;11.70;99.90;;;;;;6312578;22;20193;-92
2021/12/13 01:00:58;;;;;;;40.87;22.43;;;11.70;99.90;;;;;;6312594;22;20180;-92
2021/12/13 01:03:40;;;;;;;42.80;21.50;;;11.60;99.90;;;;;;6312940;22;20600;-93
2021/12/13 01:06:44;;;;;;;44.80;22.23;;;11.60;99.90;;;;;;6312902;22;20149;-92
2021/12/13 01:09:57;;;;;;;41.70;21.93;;;11.70;99.90;;;;;;6312810;22;20154;-92
2021/12/13 01:12:24;;;;;;;41.63;21.83;;;11.70;99.90;;;;;;6204021;22;20159;-92
2021/12/13 01:15:01;;;;;;;41.83;21.23;;;11.60;99.90;;;;;;6312898;22;20153;-92
2021/12/13 01:17:59;;;;;;;37.83;20.63;;;11.60;99.90;;;;;;6311704;22;20156;-92
2021/12/13 01:20:55;;;;;;;40.47;21.10;;;11.50;99.90;;;;;;6313106;22;20164;-92
2021/12/13 01:23:40;;;;;;;40.03;20.30;;;11.50;99.90;;;;;;6314319;22;20145;-92
2021/12/13 01:26:26;;;;;;;43.77;23.53;;;11.70;99.90;;;;;;6312311;22;20167;-92
2021/12/13 01:28:57;;;;;;;40.07;20.73;;;11.60;99.90;;;;;;6312175;22;20485;-92
2021/12/13 01:31:43;;;;;;;37.07;19.83;;;11.70;99.90;;;;;;6312346;22;20638;-91
2021/12/13 01:34:10;;;;;;;38.57;20.07;;;11.60;99.90;;;;;;6312186;22;20149;-92
2021/12/13 01:36:47;;;;;;;34.53;19.13;;;11.50;99.90;;;;;;6312739;22;20152;-91
2021/12/13 01:39:22;;;;;;;39.87;20.33;;;11.40;99.90;;;;;;6312371;22;20695;-92
2021/12/13 01:42:08;;;;;;;32.30;19.87;;;11.40;99.90;;;;;;6312205;22;20156;-91
2021/12/13 01:44:36;;;;;;;33.43;17.97;;;11.50;99.90;;;;;;6312107;22;20145;-91
2021/12/13 01:47:09;;;;;;;35.00;18.67;;;11.60;99.90;;;;;;6312316;22;20153;-92
2021/12/13 01:49:51;;;;;;;32.60;18.30;;;11.50;99.90;;;;;;6317304;22;20248;-92
2021/12/13 01:52:29;;;;;;;32.87;18.43;;;11.60;99.90;;;;;;6318033;22;20145;-92
2021/12/13 01:54:59;;;;;;;29.77;17.63;;;11.60;99.90;;;;;;6312084;22;20189;-92
2021/12/13 01:57:40;;;;;;;32.57;18.87;;;11.50;99.90;;;;;;6312074;22;20172;-91
2021/12/13 02:00:33;;;;;;;35.70;18.53;;;11.50;99.90;;;;;;6312127;22;20177;-91
2021/12/13 02:02:59;;;;;;;35.10;19.27;;;11.50;99.90;;;;;;6312108;22;20227;-92
2021/12/13 02:05:28;;;;;;;33.27;17.97;;;11.50;99.90;;;;;;6312226;22;20149;-91
2021/12/13 02:08:15;;;;;;;33.03;17.07;;;11.50;99.90;;;;;;6312114;22;20625;-92
2021/12/13 02:10:55;;;;;;;31.30;18.03;;;11.40;99.90;;;;;;6312070;22;20187;-87
2021/12/13 02:13:38;;;;;;;31.33;18.00;;;11.30;99.90;;;;;;6312112;22;20155;-91
2021/12/13 02:18:54;;;;;;;33.87;16.90;;;11.40;99.90;;;;;;6339549;22;20679;-91
2021/12/13 02:21:31;;;;;;;32.87;17.40;;;11.50;99.90;;;;;;6312218;22;20138;-92
2021/12/13 02:24:06;;;;;;;31.37;16.57;;;11.40;99.90;;;;;;6312059;22;20140;-93
2021/12/13 02:26:35;;;;;;;30.53;16.63;;;11.50;99.90;;;;;;6312186;22;20145;-92
2021/12/13 02:29:11;;;;;;;32.87;17.60;;;11.60;99.90;;;;;;6312010;22;20156;-92
2021/12/13 02:31:39;;;;;;;29.27;16.60;;;11.50;99.90;;;;;;6312009;22;20206;-91
2021/12/13 02:34:09;;;;;;;30.27;15.60;;;11.40;99.90;;;;;;6312058;22;20188;-92
2021/12/13 02:36:40;;;;;;;28.37;16.23;;;11.50;99.90;;;;;;6312059;22;20153;-92
2021/12/13 02:39:10;;;;;;;29.73;16.40;;;11.40;99.90;;;;;;6311516;22;20173;-92
2021/12/13 02:41:37;;;;;;;29.70;16.00;;;11.40;99.90;;;;;;6312201;22;20186;-92
2021/12/13 02:44:22;;;;;;;29.63;16.30;;;11.30;99.90;;;;;;6311977;22;20483;-91
2021/12/13 02:46:47;;;;;;;34.17;16.43;;;11.40;99.90;;;;;;6311777;22;20657;-91
2021/12/13 02:49:16;;;;;;;26.67;15.70;;;11.40;99.90;;;;;;6311881;22;20145;-92
2021/12/13 02:51:49;;;;;;;27.63;16.20;;;11.50;99.90;;;;;;6311863;22;20190;-91
2021/12/13 02:54:22;;;;;;;28.90;15.23;;;11.50;99.90;;;;;;6311388;22;20137;-91
2021/12/13 02:56:55;;;;;;;29.40;15.37;;;11.60;99.90;;;;;;6311679;22;20169;-90
2021/12/13 02:59:25;;;;;;;30.03;15.23;;;11.50;99.90;;;;;;6311688;22;20177;-91
2021/12/13 03:02:00;;;;;;;28.53;14.37;;;11.40;99.90;;;;;;6311826;22;20172;-93
2021/12/13 03:04:27;;;;;;;29.70;15.53;;;11.40;99.90;;;;;;6311954;22;20152;-89
2021/12/13 03:07:08;;;;;;;26.53;14.20;;;11.40;99.90;;;;;;6311499;22;20141;-91
2021/12/13 03:09:38;;;;;;;30.23;14.07;;;11.50;99.90;;;;;;6311707;22;20141;-90
2021/12/13 03:12:07;;;;;;;30.57;15.47;;;11.50;99.90;;;;;;6311860;22;20145;-92
2021/12/13 03:14:40;;;;;;;29.73;15.10;;;11.50;99.90;;;;;;6311713;22;20145;-91
2021/12/13 03:17:13;;;;;;;25.27;14.67;;;11.50;99.90;;;;;;6311803;22;20315;-92
2021/12/13 03:19:42;;;;;;;25.33;14.27;;;11.50;99.90;;;;;;6311703;22;20280;-92
2021/12/13 03:22:45;;;;;;;26.63;14.73;;;11.50;99.90;;;;;;6311643;22;20595;-91
2021/12/13 03:25:40;;;;;;;23.83;13.27;;;11.50;99.90;;;;;;6311603;22;20163;-91
2021/12/13 03:28:17;;;;;;;26.07;13.70;;;11.40;99.90;;;;;;6313361;22;20148;-92
2021/12/13 03:30:56;;;;;;;25.57;13.80;;;11.40;99.90;;;;;;6313775;22;20198;-92
2021/12/13 03:33:48;;;;;;;23.83;13.97;;;11.50;99.90;;;;;;6313683;22;20160;-90
2021/12/13 03:36:16;;;;;;;26.73;14.37;;;11.50;99.90;;;;;;6312030;22;20662;-92
2021/12/13 03:38:46;;;;;;;25.63;13.87;;;11.50;99.90;;;;;;6313715;22;20263;-91
2021/12/13 03:41:19;;;;;;;26.13;13.33;;;11.40;99.90;;;;;;6313545;22;20217;-91
2021/12/13 03:43:54;;;;;;;25.23;13.63;;;11.40;99.90;;;;;;6313765;22;20145;-91
2021/12/13 03:46:23;;;;;;;27.27;14.27;;;11.50;99.90;;;;;;6313378;22;20183;-91
2021/12/13 03:48:51;;;;;;;26.70;14.20;;;11.50;99.90;;;;;;6313646;22;20153;-90
2021/12/13 03:51:26;;;;;;;28.40;14.37;;;11.50;99.90;;;;;;6313012;22;20570;-91
2021/12/13 03:53:55;;;;;;;26.77;14.17;;;11.50;99.90;;;;;;6313559;22;20176;-92
2021/12/13 03:56:28;;;;;;;26.40;14.17;;;11.50;99.90;;;;;;6313882;22;20244;-92
2021/12/13 03:59:08;;;;;;;25.60;14.33;;;11.50;99.90;;;;;;6315441;22;20227;-92
2021/12/13 04:01:41;;;;;;;27.43;14.83;;;11.40;99.90;;;;;;6313083;22;20165;-92
2021/12/13 04:04:13;;;;;;;24.47;13.23;;;11.50;99.90;;;;;;6313413;22;20504;-92
2021/12/13 04:06:51;;;;;;;24.83;14.30;;;11.50;99.90;;;;;;6313054;22;20152;-92
2021/12/13 04:09:18;;;;;;;25.83;14.53;;;11.50;99.90;;;;;;6313465;22;20152;-92
2021/12/13 04:11:45;;;;;;;26.97;14.07;;;11.50;99.90;;;;;;6313455;22;20142;-92
2021/12/13 04:14:31;;;;;;;27.70;15.33;;;11.50;99.90;;;;;;6313322;22;20145;-92
2021/12/13 04:17:34;;;;;;;26.47;14.00;;;11.60;99.90;;;;;;6313159;22;20149;-92
2021/12/13 04:20:07;;;;;;;29.80;14.37;;;11.60;99.90;;;;;;6313030;22;20157;-92
2021/12/13 04:22:38;;;;;;;26.73;14.13;;;11.60;99.90;;;;;;6313856;22;20149;-92
2021/12/13 04:25:13;;;;;;;25.90;14.37;;;11.60;99.90;;;;;;6312870;22;20171;-91
2021/12/13 04:27:54;;;;;;;25.33;13.80;;;11.60;99.90;;;;;;6313177;22;20605;-92
2021/12/13 04:30:27;;;;;;;26.57;14.67;;;11.60;99.90;;;;;;6313410;22;20144;-91
2021/12/13 04:32:58;;;;;;;27.43;14.43;;;11.60;99.90;;;;;;6313196;22;20156;-91
2021/12/13 04:35:25;;;;;;;29.27;14.97;;;11.50;99.90;;;;;;6312789;22;20151;-90
2021/12/13 04:37:55;;;;;;;27.60;14.03;;;11.40;99.90;;;;;;6315912;22;20176;-91
2021/12/13 04:40:28;;;;;;;26.60;14.67;;;11.30;99.90;;;;;;6318743;22;20149;-92
2021/12/13 04:42:59;;;;;;;26.97;14.60;;;11.40;99.90;;;;;;6313488;22;20176;-92
2021/12/13 04:45:28;;;;;;;25.27;14.03;;;11.40;99.90;;;;;;6313174;22;20438;-92
2021/12/13 04:48:12;;;;;;;26.43;14.40;;;11.20;99.90;;;;;;6313049;22;20133;-92
2021/12/13 04:51:09;;;;;;;28.83;15.23;;;11.40;99.90;;;;;;6312974;22;20619;-92
2021/12/13 04:53:39;;;;;;;33.57;15.50;;;11.50;99.90;;;;;;6312678;22;20179;-91
2021/12/13 04:56:11;;;;;;;28.43;15.87;;;11.50;99.90;;;;;;6312852;22;20678;-92
2021/12/13 04:58:43;;;;;;;30.20;15.60;;;11.50;99.90;;;;;;6312684;22;20192;-92
2021/12/13 05:01:11;;;;;;;29.37;14.23;;;11.40;99.90;;;;;;6312797;22;20258;-92
2021/12/13 05:03:43;;;;;;;28.07;15.47;;;11.40;99.90;;;;;;6312488;22;20228;-91
2021/12/13 05:06:14;;;;;;;26.47;14.67;;;11.30;99.90;;;;;;6312716;22;20142;-90
2021/12/13 05:08:41;;;;;;;29.07;15.20;;;11.30;99.90;;;;;;6312904;22;20147;-91
2021/12/13 05:11:08;;;;;;;29.53;16.23;;;11.30;99.90;;;;;;6312698;22;20174;-92
2021/12/13 05:13:44;;;;;;;29.07;15.23;;;11.40;99.90;;;;;;6312788;22;20150;-92
2021/12/13 05:16:11;;;;;;;28.50;15.03;;;11.30;99.90;;;;;;6313656;22;20155;-91
2021/12/13 05:18:45;;;;;;;29.70;14.57;;;11.30;99.90;;;;;;6313332;22;20188;-92
2021/12/13 05:21:16;;;;;;;28.00;14.67;;;11.40;99.90;;;;;;6312396;22;20151;-92
2021/12/13 05:23:57;;;;;;;29.00;14.23;;;11.30;99.90;;;;;;6312907;22;20149;-91
2021/12/13 05:26:43;;;;;;;25.90;14.80;;;11.30;99.90;;;;;;6312674;22;20235;-92
2021/12/13 05:29:29;;;;;;;26.37;14.87;;;11.30;99.90;;;;;;6312571;22;20486;-89
2021/12/13 05:32:04;;;;;;;26.23;14.33;;;11.30;99.90;;;;;;6312509;22;20152;-92
2021/12/13 05:34:36;;;;;;;25.70;14.20;;;11.40;99.90;;;;;;6312311;22;20149;-92
2021/12/13 05:37:06;;;;;;;29.37;14.47;;;11.30;99.90;;;;;;6312369;22;20174;-91
2021/12/13 05:39:33;;;;;;;26.80;14.10;;;11.30;99.90;;;;;;6312202;22;20175;-92
2021/12/13 05:42:09;;;;;;;26.47;13.50;;;11.30;99.90;;;;;;6312787;22;20176;-91
2021/12/13 05:44:41;;;;;;;25.63;13.90;;;11.30;99.90;;;;;;6312674;22;20148;-92
2021/12/13 05:47:21;;;;;;;27.93;12.73;;;11.20;99.90;;;;;;6312371;22;20202;-92
2021/12/13 05:49:48;;;;;;;23.73;12.67;;;11.30;99.90;;;;;;6312105;22;20141;-92
2021/12/13 05:52:24;;;;;;;19.73;11.53;;;11.30;99.90;;;;;;6312283;22;20685;-92
2021/12/13 05:54:58;;;;;;;22.10;12.37;;;11.30;99.90;;;;;;6312287;22;20156;-91
2021/12/13 05:57:36;;;;;;;20.10;11.70;;;11.40;99.90;;;;;;6312706;22;20176;-91
2021/12/13 06:00:17;;;;;;;20.23;11.53;;;11.40;99.90;;;;;;6312418;22;20256;-92
2021/12/13 06:03:00;;;;;;;19.77;11.30;;;11.40;99.90;;;;;;6312425;22;20149;-91
2021/12/13 06:05:37;;;;;;;19.03;11.53;;;11.40;99.90;;;;;;6312247;22;20149;-92
2021/12/13 06:08:09;;;;;;;18.97;10.40;;;11.40;99.90;;;;;;6312195;22;20478;-92
2021/12/13 06:10:57;;;;;;;16.67;9.93;;;11.50;99.90;;;;;;6312604;22;20578;-91
2021/12/13 06:13:43;;;;;;;16.80;9.70;;;11.50;99.90;;;;;;6311960;22;20184;-91
2021/12/13 06:16:25;;;;;;;15.30;9.10;;;11.50;99.90;;;;;;6311957;22;20151;-92
2021/12/13 06:18:58;;;;;;;16.33;8.90;;;11.30;99.90;;;;;;6312146;22;20264;-91
2021/12/13 06:21:43;;;;;;;14.87;8.67;;;11.30;99.90;;;;;;6309091;22;20145;-90
2021/12/13 06:24:10;;;;;;;14.93;8.87;;;11.40;99.90;;;;;;6307231;22;20232;-93
2021/12/13 06:26:36;;;;;;;15.00;8.80;;;11.40;99.90;;;;;;6310538;22;20163;-89
2021/12/13 06:29:06;;;;;;;13.00;8.00;;;11.40;99.90;;;;;;6310260;22;20582;-88
2021/12/13 06:31:42;;;;;;;12.33;8.00;;;11.40;99.90;;;;;;6308410;22;20141;-88
2021/12/13 06:34:12;;;;;;;13.33;7.23;;;11.50;99.90;;;;;;6310533;22;20144;-89
2021/12/13 06:36:48;;;;;;;14.30;8.53;;;11.50;99.90;;;;;;6311208;22;20156;-89
2021/12/13 06:39:27;;;;;;;14.13;8.07;;;11.40;99.90;;;;;;6311254;22;20177;-90
2021/12/13 06:42:03;;;;;;;14.27;8.00;;;11.40;99.90;;;;;;6310429;22;20158;-89
2021/12/13 06:44:34;;;;;;;14.37;7.83;;;11.40;99.90;;;;;;6310738;22;20163;-89
2021/12/13 06:47:06;;;;;;;12.90;7.50;;;11.40;99.90;;;;;;6310893;22;20581;-89
2021/12/13 06:49:38;;;;;;;13.33;7.40;;;11.40;99.90;;;;;;6310363;22;20140;-89
2021/12/13 06:52:08;;;;;;;12.73;7.53;;;11.40;99.90;;;;;;6309819;22;20601;-90
2021/12/13 06:54:44;;;;;;;12.00;7.40;;;11.40;99.90;;;;;;6311304;22;20479;-90
2021/12/13 06:57:17;;;;;;;13.17;7.47;;;11.40;99.90;;;;;;6309768;22;20172;-90
2021/12/13 06:59:55;;;;;;;14.20;7.90;;;11.30;99.90;;;;;;6310116;22;20486;-90
2021/12/13 07:02:35;;;;;;;11.70;7.27;;;11.40;99.90;;;;;;6313993;22;20205;-90
2021/12/13 07:05:17;;;;;;;14.57;7.50;;;11.40;99.90;;;;;;6313991;22;20133;-91
2021/12/13 07:08:04;;;;;;;12.07;7.53;;;11.40;99.90;;;;;;6313766;22;20152;-90
2021/12/13 07:10:44;;;;;;;13.27;7.93;;;11.30;99.90;;;;;;6313068;22;20191;-91
2021/12/13 07:13:22;;;;;;;13.17;7.60;;;11.40;99.90;;;;;;6314696;22;20237;-91
2021/12/13 07:16:16;;;;;;;12.30;7.30;;;11.40;99.90;;;;;;6314942;22;20235;-91
2021/12/13 07:18:49;;;;;;;10.20;6.80;;;11.30;99.90;;;;;;6314704;22;20185;-92
2021/12/13 07:21:23;;;;;;;12.00;7.57;;;11.20;99.90;;;;;;6314839;22;20145;-91
2021/12/13 07:23:55;;;;;;;11.40;7.10;;;11.30;99.90;;;;;;6313334;22;20584;-88
2021/12/13 07:26:31;;;;;;;11.63;6.67;;;11.30;99.90;;;;;;6315051;22;20216;-88
2021/12/13 07:28:59;;;;;;;14.67;7.37;;;11.30;99.90;;;;;;6316568;22;20145;-89
2021/12/13 07:31:26;;;;;;;12.97;7.27;;;11.20;99.90;;;;;;6315719;22;20597;-89
2021/12/13 07:33:52;;;;;;;10.80;7.03;;;11.20;99.90;;;;;;6313762;22;20149;-88
2021/12/13 07:36:25;;;;;;;11.67;7.30;;;11.20;99.90;;;;;;6313257;22;20152;-89
2021/12/13 07:38:57;;;;;;;15.50;7.63;;;11.20;99.90;;;;;;6315304;22;20206;-90
2021/12/13 07:41:46;;;;;;;10.13;6.77;;;11.20;99.90;;;;;;6315263;22;20179;-89
2021/12/13 07:44:26;;;;;;;11.13;6.87;;;11.30;99.90;;;;;;6314902;22;20180;-89
2021/12/13 07:47:55;;;;;;;9.37;6.23;;;11.20;99.90;;;;;;6314965;22;20148;-91
2021/12/13 07:50:59;;;;;;;9.60;6.00;;;11.20;99.90;;;;;;6311035;22;20210;-92
2021/12/13 07:53:48;;;;;;;12.50;7.70;;;11.10;99.90;;;;;;6314038;22;20422;-91
2021/12/13 07:56:31;;;;;;;9.07;6.13;;;11.20;99.90;;;;;;6314855;22;20161;-91
2021/12/13 07:59:07;;;;;;;12.13;6.90;;;11.30;99.90;;;;;;6314297;22;20195;-91
2021/12/13 08:01:56;;;;;;;12.70;6.60;;;11.30;99.90;;;;;;6315816;22;20178;-92
2021/12/13 08:04:34;;;;;;;10.47;5.77;;;11.20;99.90;;;;;;6312887;22;20149;-91
2021/12/13 08:07:09;;;;;;;10.83;6.30;;;11.30;99.90;;;;;;6313961;22;20149;-91
2021/12/13 08:09:56;;;;;;;9.93;6.27;;;11.40;99.90;;;;;;6314896;22;20541;-91
2021/12/13 08:12:41;;;;;;;8.33;5.80;;;11.30;99.90;;;;;;6313072;22;20175;-91
2021/12/13 08:15:28;;;;;;;8.43;5.87;;;11.30;99.90;;;;;;6313411;22;20156;-92
2021/12/13 08:18:20;;;;;;;13.93;6.70;;;11.40;99.90;;;;;;6312473;22;20488;-91
2021/12/13 08:20:53;;;;;;;12.67;5.30;;;11.30;99.90;;;;;;6312192;22;20161;-91
2021/12/13 08:23:22;;;;;;;9.57;6.00;;;11.30;99.90;;;;;;6312920;22;20162;-91
2021/12/13 08:26:21;;;;;;;8.37;5.37;;;11.50;99.90;;;;;;6311058;22;20188;-91
2021/12/13 08:29:10;;;;;;;12.40;6.07;;;11.50;99.90;;;;;;6312152;22;20154;-92
2021/12/13 08:34:59;;;;;;;9.43;5.83;;;11.40;99.90;;;;;;6301629;22;20485;-91
2021/12/13 08:37:41;;;;;;;8.87;5.43;;;11.30;99.90;;;;;;6311664;22;20152;-91
2021/12/13 08:40:21;;;;;;;11.70;6.80;;;11.30;99.90;;;;;;6311114;22;20165;-91
2021/12/13 08:42:55;;;;;;;9.13;5.90;;;11.30;99.90;;;;;;6310922;22;20149;-91
2021/12/13 08:46:11;;;;;;;9.10;5.33;;;11.30;99.90;;;;;;6312679;22;20149;-92
2021/12/13 08:48:55;;;;;;;8.33;5.93;;;11.20;99.90;;;;;;6312300;22;20481;-91
2021/12/13 08:51:25;;;;;;;9.00;6.07;;;11.20;99.90;;;;;;6312835;22;20153;-91
2021/12/13 08:54:05;;;;;;;8.53;5.30;;;11.20;99.90;;;;;;6312392;22;20647;-91
2021/12/13 08:56:41;;;;;;;8.07;5.17;;;11.20;99.90;;;;;;6312176;22;20180;-91
2021/12/13 08:59:20;;;;;;;5.93;4.53;;;11.20;99.90;;;;;;6312684;22;20193;-90
2021/12/13 09:01:55;;;;;;;8.40;5.27;;;11.20;99.90;;;;;;6312673;22;20165;-91
2021/12/13 09:04:40;;;;;;;7.87;5.20;;;11.30;99.90;;;;;;6312964;22;20187;-91
2021/12/13 09:07:11;;;;;;;7.97;4.97;;;11.30;99.90;;;;;;6312185;22;20157;-91
2021/12/13 09:09:45;;;;;;;7.87;4.97;;;11.30;99.90;;;;;;6312713;22;20188;-91
2021/12/13 09:12:14;;;;;;;8.40;4.93;;;11.40;99.90;;;;;;6312613;22;20152;-90
2021/12/13 09:14:50;;;;;;;6.23;4.17;;;11.40;99.90;;;;;;6312867;22;20238;-91
2021/12/13 09:17:37;;;;;;;7.87;4.50;;;11.50;99.90;;;;;;6313164;22;20151;-90
2021/12/13 09:20:28;;;;;;;11.80;4.57;;;11.60;99.90;;;;;;6312349;22;20172;-91
2021/12/13 09:23:08;;;;;;;8.93;4.87;;;11.50;99.90;;;;;;6312381;22;20145;-90
2021/12/13 10:12:15;;;;;;;;;;;;;;;;;;;;;
2021/12/13 10:22:46;;;;;;;;;;;;;;;;;;;;;
2021/12/13 10:33:14;;;;;;;;;;;;;;;;;;;;;
2021/12/13 10:36:33;;;;;;;;;;;;;;;;;;;;;
2021/12/13 10:40:00;;;;;;;;;;;;;;;;;;;;;
2021/12/13 10:53:47;;;;;;;;;;;;;;;;;;;;;
2021/12/13 11:11:34;;;;;;;;;;;;;;;;;;;;;
2021/12/13 11:18:28;;;;;;;;;;;;;;;;;;;;;
2021/12/13 11:54:20;;;;;;;;;;;;;;;;;;;;;
2021/12/13 15:40:43;;;;;;;5.50;3.37;;;11.90;99.90;;;;;;6340323;22;20208;-85
2021/12/13 15:43:20;;;;;;;7.33;4.30;;;11.90;99.90;;;;;;6313246;22;20145;-85
2021/12/13 15:45:52;;;;;;;6.67;4.57;;;11.90;99.90;;;;;;6313220;22;20160;-85
2021/12/13 15:51:25;;;;;;;9.10;5.80;;;12.00;99.90;;;;;;6340966;22;20144;-86
2021/12/13 15:53:54;;;;;;;9.10;4.50;;;12.00;99.90;;;;;;6313390;22;20198;-85
2021/12/13 15:56:24;;;;;;;7.47;5.07;;;11.80;99.90;;;;;;6312872;22;20172;-85
2021/12/13 15:59:00;;;;;;;7.73;4.13;;;11.90;99.90;;;;;;6309526;22;20180;-85
2021/12/13 16:01:46;;;;;;;7.23;4.37;;;11.90;99.90;;;;;;6282580;22;20154;-85
2021/12/13 16:04:14;;;;;;;6.10;4.07;;;11.90;99.90;;;;;;6281949;22;20207;-85
2021/12/13 16:06:49;;;;;;;6.63;4.80;;;11.80;99.90;;;;;;6282596;22;20668;-85
2021/12/13 16:09:21;;;;;;;8.23;5.17;;;11.80;99.90;;;;;;6282833;22;20157;-85
2021/12/13 16:12:00;;;;;;;7.93;5.17;;;11.80;99.90;;;;;;6281700;22;20150;-84
2021/12/13 16:14:41;;;;;;;7.90;5.23;;;11.90;99.90;;;;;;6279889;22;20153;-84
2021/12/13 16:17:06;;;;;;;7.93;5.27;;;12.10;99.90;;;;;;6281485;22;20476;-84
2021/12/13 16:19:50;;;;;;;9.80;5.90;;;11.90;99.90;;;;;;6281995;22;20185;-84
2021/12/13 16:22:31;;;;;;;8.30;4.50;;;11.90;99.90;;;;;;6281894;22;20146;-84
2021/12/13 16:25:01;;;;;;;6.80;5.20;;;11.80;99.90;;;;;;6281393;22;20482;-85
2021/12/13 16:27:27;;;;;;;7.13;5.43;;;12.00;99.90;;;;;;6281649;22;20168;-85
2021/12/13 16:29:53;;;;;;;8.57;5.47;;;12.00;99.90;;;;;;6304257;22;20134;-84
2021/12/13 16:32:20;;;;;;;8.33;5.27;;;12.10;99.90;;;;;;6280378;22;20517;-83
2021/12/13 16:34:46;;;;;;;7.57;5.33;;;11.90;99.90;;;;;;6280228;22;20187;-84
2021/12/13 16:37:13;;;;;;;11.80;6.90;;;11.90;99.90;;;;;;6280464;22;20153;-84
2021/12/13 16:39:40;;;;;;;7.80;5.47;;;11.90;99.90;;;;;;6279905;22;20197;-84
2021/12/13 16:42:10;;;;;;;7.27;5.20;;;12.00;99.90;;;;;;6280362;22;20154;-85
2021/12/13 16:44:45;;;;;;;9.07;5.60;;;12.00;99.90;;;;;;6279760;22;20661;-84
2021/12/13 16:47:13;;;;;;;10.53;6.23;;;12.00;99.90;;;;;;6278820;22;20153;-83
2021/12/13 16:49:41;;;;;;;8.60;5.80;;;11.90;99.90;;;;;;6279408;22;20157;-84
2021/12/13 16:52:27;;;;;;;8.37;5.70;;;12.00;99.90;;;;;;6280794;22;20196;-84
2021/12/13 16:55:08;;;;;;;16.50;9.67;;;11.80;99.90;;;;;;6279202;22;20579;-84
2021/12/13 16:57:44;;;;;;;15.13;9.37;;;11.70;99.90;;;;;;6281019;22;20150;-83
2021/12/13 17:00:22;;;;;;;14.10;7.70;;;11.70;99.90;;;;;;6280686;22;20196;-84
2021/12/13 17:02:49;;;;;;;11.53;7.53;;;11.60;99.90;;;;;;6280651;22;20154;-83
2021/12/13 17:05:20;;;;;;;9.50;6.43;;;11.60;99.90;;;;;;6280861;22;20150;-85
2021/12/13 17:07:49;;;;;;;15.40;9.00;;;11.70;99.90;;;;;;6280748;22;20154;-84
2021/12/13 17:10:34;;;;;;;10.23;6.97;;;11.60;99.90;;;;;;6307573;22;20200;-85
2021/12/13 17:13:08;;;;;;;10.97;6.93;;;11.70;99.90;;;;;;6280506;22;20145;-85
2021/12/13 17:15:55;;;;;;;10.57;7.03;;;11.80;99.90;;;;;;6308278;22;20648;-83
2021/12/13 17:18:26;;;;;;;9.80;6.87;;;11.80;99.90;;;;;;6308272;22;20158;-84
2021/12/13 17:20:57;;;;;;;9.17;7.37;;;11.70;99.90;;;;;;6281314;22;20158;-84
2021/12/13 17:23:30;;;;;;;10.30;8.33;;;11.80;99.90;;;;;;6280430;22;20241;-84
2021/12/13 17:25:56;;;;;;;16.83;10.00;;;11.80;99.90;;;;;;6279783;22;20158;-83
2021/12/13 17:28:38;;;;;;;11.63;7.30;;;11.80;99.90;;;;;;6278363;22;20227;-85
2021/12/13 17:31:04;;;;;;;10.53;6.97;;;11.70;99.90;;;;;;6279751;22;20150;-84
2021/12/13 17:33:37;;;;;;;9.80;6.33;;;11.60;99.90;;;;;;6306563;22;20149;-84
2021/12/13 17:36:06;;;;;;;8.27;6.33;;;11.80;99.90;;;;;;6307308;22;20134;-85
2021/12/13 17:38:33;;;;;;;9.77;7.50;;;11.80;99.90;;;;;;6279632;22;20187;-85
2021/12/13 17:41:02;;;;;;;11.03;7.40;;;11.70;99.90;;;;;;6306472;22;20142;-84
2021/12/13 17:43:37;;;;;;;15.73;10.47;;;11.70;99.90;;;;;;6280237;22;20149;-84
2021/12/13 17:46:15;;;;;;;10.80;6.77;;;11.70;99.90;;;;;;6305845;22;20140;-85
2021/12/13 17:48:42;;;;;;;10.10;7.10;;;11.90;99.90;;;;;;6307513;22;20176;-86
2021/12/13 17:51:27;;;;;;;10.47;8.10;;;11.90;99.90;;;;;;6279440;22;20150;-87
2021/12/13 17:54:01;;;;;;;14.67;12.43;;;11.60;99.90;;;;;;6279982;22;20153;-85
2021/12/13 17:56:38;;;;;;;9.53;7.70;;;11.60;99.90;;;;;;6281097;22;20172;-85
2021/12/13 17:59:13;;;;;;;14.10;10.07;;;11.70;99.90;;;;;;6280965;22;20267;-84
2021/12/13 18:01:54;;;;;;;12.93;9.93;;;11.70;99.90;;;;;;6280717;22;20154;-84
2021/12/13 18:04:24;;;;;;;9.10;5.90;;;11.60;99.90;;;;;;6280209;22;20153;-84
2021/12/13 18:06:56;;;;;;;9.37;5.90;;;11.50;99.90;;;;;;6307491;22;20183;-84
2021/12/13 18:09:41;;;;;;;6.30;5.17;;;11.50;99.90;;;;;;6280550;22;20161;-84
2021/12/13 18:12:37;;;;;;;9.97;6.93;;;11.50;99.90;;;;;;6307828;22;20153;-87
2021/12/13 18:15:06;;;;;;;9.23;8.03;;;11.60;99.90;;;;;;6280464;22;20150;-86
2021/12/13 18:17:38;;;;;;;9.67;6.53;;;11.50;99.90;;;;;;6308413;22;20137;-87
2021/12/13 18:20:16;;;;;;;5.83;4.43;;;11.40;99.90;;;;;;6307655;22;20249;-85
2021/12/13 18:22:54;;;;;;;5.70;4.50;;;11.40;99.90;;;;;;6280716;22;20177;-84
2021/12/13 18:25:20;;;;;;;5.37;3.87;;;11.20;99.90;;;;;;6307514;22;20283;-85
2021/12/13 18:27:55;;;;;;;6.33;4.30;;;11.30;99.90;;;;;;6307923;22;20231;-84
2021/12/13 18:30:52;;;;;;;17.03;13.17;;;11.20;99.90;;;;;;6307767;22;20178;-85
2021/12/13 18:33:24;;;;;;;21.60;16.07;;;11.20;99.90;;;;;;6222211;22;20233;-81
2021/12/13 18:35:57;;;;;;;29.50;19.93;;;11.00;99.90;;;;;;6280709;22;20165;-84
2021/12/13 18:38:38;;;;;;;35.37;23.97;;;11.00;99.90;;;;;;6308037;22;20184;-84
2021/12/13 18:41:08;;;;;;;9.80;8.20;;;11.00;99.90;;;;;;6307616;22;20224;-84
2021/12/13 18:44:02;;;;;;;15.63;13.60;;;11.10;99.90;;;;;;6280584;22;20154;-85
2021/12/13 18:46:31;;;;;;;9.37;6.97;;;11.10;99.90;;;;;;6280779;22;20158;-85
2021/12/13 18:48:57;;;;;;;8.77;7.60;;;11.10;99.90;;;;;;6280177;22;20146;-85
2021/12/13 18:51:23;;;;;;;6.67;4.83;;;11.20;99.90;;;;;;6279580;22;20142;-84
2021/12/13 18:53:59;;;;;;;12.47;7.83;;;11.20;99.90;;;;;;6307279;22;20644;-84
2021/12/13 18:56:25;;;;;;;5.90;3.83;;;11.20;99.90;;;;;;6280404;22;20275;-84
2021/12/13 18:58:55;;;;;;;5.17;3.70;;;11.20;99.90;;;;;;6280281;22;20606;-84
2021/12/13 19:01:41;;;;;;;6.70;4.13;;;11.10;99.90;;;;;;6280598;22;20234;-85
2021/12/13 19:04:09;;;;;;;6.23;4.57;;;10.80;99.90;;;;;;6279304;22;20215;-84
2021/12/13 19:06:42;;;;;;;15.20;12.07;;;10.80;99.90;;;;;;6280810;22;20160;-85
2021/12/13 19:09:28;;;;;;;10.33;7.10;;;10.90;99.90;;;;;;6280388;22;20159;-85
2021/12/13 19:12:11;;;;;;;5.23;4.07;;;10.90;99.90;;;;;;6280168;22;20156;-82
2021/12/13 19:14:42;;;;;;;9.93;5.30;;;11.00;99.90;;;;;;6280399;22;20154;-85
2021/12/13 19:17:14;;;;;;;7.73;5.70;;;11.10;99.90;;;;;;6279683;22;20218;-84
2021/12/13 19:19:53;;;;;;;10.60;8.73;;;11.00;99.90;;;;;;6279819;22;20178;-84
2021/12/13 19:22:24;;;;;;;22.67;12.80;;;11.00;99.90;;;;;;6280192;22;20170;-85
2021/12/13 19:25:12;;;;;;;11.03;6.87;;;10.90;99.90;;;;;;6280346;22;20259;-85
2021/12/13 19:27:59;;;;;;;11.30;6.73;;;10.90;99.90;;;;;;6279959;22;20155;-84
2021/12/13 19:30:56;;;;;;;18.97;12.07;;;10.90;99.90;;;;;;6280289;22;20149;-85
2021/12/13 19:33:28;;;;;;;13.53;9.03;;;10.80;99.90;;;;;;6263306;22;20158;-85